sensor_id;sensor_type;location;lat;lon;timestamp;P1;durP1;ratioP1;P2;durP2;ratioP2
19788;SDS011;10054;59.332;18.244;2023-07-13T00:01:10;3.40;;;2.93;;
19788;SDS011;10054;59.332;18.244;2023-07-13T00:03:38;3.40;;;3.10;;
19788;SDS011;10054;59.332;18.244;2023-07-13T00:06:07;4.47;;;3.00;;
19788;SDS011;10054;59.332;18.244;2023-07-13T00:08:36;3.13;;;2.83;;
19788;SDS011;10054;59.332;18.244;2023-07-13T00:11:05;3.10;;;2.83;;
19788;SDS011;10054;59.332;18.244;2023-07-13T00:13:34;3.20;;;2.90;;
19788;SDS011;10054;59.332;18.244;2023-07-13T00:16:04;3.43;;;2.87;;
19788;SDS011;10054;59.332;18.244;2023-07-13T00:18:34;3.27;;;2.83;;
19788;SDS011;10054;59.332;18.244;2023-07-13T00:21:04;3.03;;;2.73;;
19788;SDS011;10054;59.332;18.244;2023-07-13T00:23:37;3.07;;;2.73;;
19788;SDS011;10054;59.332;18.244;2023-07-13T00:26:08;5.77;;;3.10;;
19788;SDS011;10054;59.332;18.244;2023-07-13T00:28:39;3.03;;;2.77;;
19788;SDS011;10054;59.332;18.244;2023-07-13T00:31:09;3.60;;;2.87;;
19788;SDS011;10054;59.332;18.244;2023-07-13T00:33:40;3.17;;;2.90;;
19788;SDS011;10054;59.332;18.244;2023-07-13T00:36:09;2.80;;;2.60;;
19788;SDS011;10054;59.332;18.244;2023-07-13T00:38:39;3.07;;;2.77;;
19788;SDS011;10054;59.332;18.244;2023-07-13T00:41:08;3.07;;;2.77;;
19788;SDS011;10054;59.332;18.244;2023-07-13T00:43:38;4.33;;;2.80;;
19788;SDS011;10054;59.332;18.244;2023-07-13T00:46:10;3.17;;;2.80;;
19788;SDS011;10054;59.332;18.244;2023-07-13T00:48:41;3.07;;;2.80;;
19788;SDS011;10054;59.332;18.244;2023-07-13T00:51:12;2.77;;;2.57;;
19788;SDS011;10054;59.332;18.244;2023-07-13T00:53:43;3.73;;;2.47;;
19788;SDS011;10054;59.332;18.244;2023-07-13T00:56:13;3.40;;;2.70;;
19788;SDS011;10054;59.332;18.244;2023-07-13T00:58:44;2.97;;;2.77;;
19788;SDS011;10054;59.332;18.244;2023-07-13T01:01:13;2.83;;;2.47;;
19788;SDS011;10054;59.332;18.244;2023-07-13T01:03:42;3.53;;;2.70;;
19788;SDS011;10054;59.332;18.244;2023-07-13T01:06:11;2.70;;;2.50;;
19788;SDS011;10054;59.332;18.244;2023-07-13T01:08:40;3.30;;;2.53;;
19788;SDS011;10054;59.332;18.244;2023-07-13T01:11:09;2.77;;;2.43;;
19788;SDS011;10054;59.332;18.244;2023-07-13T01:13:38;3.47;;;2.37;;
19788;SDS011;10054;59.332;18.244;2023-07-13T01:16:11;3.33;;;2.63;;
19788;SDS011;10054;59.332;18.244;2023-07-13T01:18:41;2.50;;;2.30;;
19788;SDS011;10054;59.332;18.244;2023-07-13T01:21:10;2.87;;;2.67;;
19788;SDS011;10054;59.332;18.244;2023-07-13T01:23:40;3.80;;;2.30;;
19788;SDS011;10054;59.332;18.244;2023-07-13T01:26:10;2.70;;;2.50;;
19788;SDS011;10054;59.332;18.244;2023-07-13T01:28:39;3.17;;;2.50;;
19788;SDS011;10054;59.332;18.244;2023-07-13T01:31:08;2.53;;;2.43;;
19788;SDS011;10054;59.332;18.244;2023-07-13T01:33:38;3.20;;;2.90;;
19788;SDS011;10054;59.332;18.244;2023-07-13T01:36:07;2.60;;;2.40;;
19788;SDS011;10054;59.332;18.244;2023-07-13T01:38:37;2.97;;;2.63;;
19788;SDS011;10054;59.332;18.244;2023-07-13T01:41:07;3.03;;;2.60;;
19788;SDS011;10054;59.332;18.244;2023-07-13T01:43:36;3.00;;;2.67;;
19788;SDS011;10054;59.332;18.244;2023-07-13T01:46:06;3.20;;;2.60;;
19788;SDS011;10054;59.332;18.244;2023-07-13T01:48:35;4.00;;;2.53;;
19788;SDS011;10054;59.332;18.244;2023-07-13T01:51:04;2.87;;;2.67;;
19788;SDS011;10054;59.332;18.244;2023-07-13T01:53:33;4.27;;;2.80;;
19788;SDS011;10054;59.332;18.244;2023-07-13T01:56:02;4.40;;;2.37;;
19788;SDS011;10054;59.332;18.244;2023-07-13T01:58:31;4.97;;;2.50;;
19788;SDS011;10054;59.332;18.244;2023-07-13T02:01:00;4.50;;;2.73;;
19788;SDS011;10054;59.332;18.244;2023-07-13T02:03:28;2.50;;;2.30;;
19788;SDS011;10054;59.332;18.244;2023-07-13T02:05:58;2.70;;;2.50;;
19788;SDS011;10054;59.332;18.244;2023-07-13T02:08:26;3.60;;;2.60;;
19788;SDS011;10054;59.332;18.244;2023-07-13T02:10:55;3.13;;;2.70;;
19788;SDS011;10054;59.332;18.244;2023-07-13T02:13:24;2.50;;;2.30;;
19788;SDS011;10054;59.332;18.244;2023-07-13T02:15:53;2.70;;;2.50;;
19788;SDS011;10054;59.332;18.244;2023-07-13T02:18:22;7.50;;;2.40;;
19788;SDS011;10054;59.332;18.244;2023-07-13T02:20:51;3.33;;;2.63;;
19788;SDS011;10054;59.332;18.244;2023-07-13T02:23:20;3.43;;;3.13;;
19788;SDS011;10054;59.332;18.244;2023-07-13T02:25:49;2.80;;;2.60;;
19788;SDS011;10054;59.332;18.244;2023-07-13T02:28:19;4.50;;;2.50;;
19788;SDS011;10054;59.332;18.244;2023-07-13T02:30:49;2.93;;;2.63;;
19788;SDS011;10054;59.332;18.244;2023-07-13T02:33:18;3.40;;;2.40;;
19788;SDS011;10054;59.332;18.244;2023-07-13T02:35:47;3.07;;;2.77;;
19788;SDS011;10054;59.332;18.244;2023-07-13T02:38:17;4.20;;;2.63;;
19788;SDS011;10054;59.332;18.244;2023-07-13T02:40:47;5.20;;;2.90;;
19788;SDS011;10054;59.332;18.244;2023-07-13T02:43:16;2.67;;;2.50;;
19788;SDS011;10054;59.332;18.244;2023-07-13T02:45:46;3.57;;;2.60;;
19788;SDS011;10054;59.332;18.244;2023-07-13T02:48:17;3.00;;;2.70;;
19788;SDS011;10054;59.332;18.244;2023-07-13T02:50:46;3.03;;;2.80;;
19788;SDS011;10054;59.332;18.244;2023-07-13T02:53:14;2.80;;;2.50;;
19788;SDS011;10054;59.332;18.244;2023-07-13T02:55:44;3.33;;;3.13;;
19788;SDS011;10054;59.332;18.244;2023-07-13T02:58:14;2.90;;;2.70;;
19788;SDS011;10054;59.332;18.244;2023-07-13T03:00:46;4.70;;;3.20;;
19788;SDS011;10054;59.332;18.244;2023-07-13T03:03:17;4.27;;;2.80;;
19788;SDS011;10054;59.332;18.244;2023-07-13T03:05:46;3.07;;;2.77;;
19788;SDS011;10054;59.332;18.244;2023-07-13T03:08:17;3.30;;;3.00;;
19788;SDS011;10054;59.332;18.244;2023-07-13T03:10:47;3.43;;;2.93;;
19788;SDS011;10054;59.332;18.244;2023-07-13T03:13:15;4.33;;;2.80;;
19788;SDS011;10054;59.332;18.244;2023-07-13T03:15:48;3.30;;;3.00;;
19788;SDS011;10054;59.332;18.244;2023-07-13T03:18:16;3.60;;;2.83;;
19788;SDS011;10054;59.332;18.244;2023-07-13T03:20:45;3.37;;;3.07;;
19788;SDS011;10054;59.332;18.244;2023-07-13T03:23:14;4.07;;;2.80;;
19788;SDS011;10054;59.332;18.244;2023-07-13T03:25:43;4.60;;;2.60;;
19788;SDS011;10054;59.332;18.244;2023-07-13T03:28:12;3.20;;;2.90;;
19788;SDS011;10054;59.332;18.244;2023-07-13T03:30:42;4.20;;;2.87;;
19788;SDS011;10054;59.332;18.244;2023-07-13T03:33:11;6.07;;;3.00;;
19788;SDS011;10054;59.332;18.244;2023-07-13T03:35:40;3.33;;;3.03;;
19788;SDS011;10054;59.332;18.244;2023-07-13T03:38:09;4.40;;;3.10;;
19788;SDS011;10054;59.332;18.244;2023-07-13T03:40:39;3.27;;;2.97;;
19788;SDS011;10054;59.332;18.244;2023-07-13T03:43:08;4.97;;;2.83;;
19788;SDS011;10054;59.332;18.244;2023-07-13T03:45:40;4.83;;;3.00;;
19788;SDS011;10054;59.332;18.244;2023-07-13T03:48:09;4.37;;;3.00;;
19788;SDS011;10054;59.332;18.244;2023-07-13T03:50:38;5.13;;;3.27;;
19788;SDS011;10054;59.332;18.244;2023-07-13T03:53:07;4.47;;;2.83;;
19788;SDS011;10054;59.332;18.244;2023-07-13T03:55:36;4.23;;;3.00;;
19788;SDS011;10054;59.332;18.244;2023-07-13T04:00:59;4.60;;;2.87;;
19788;SDS011;10054;59.332;18.244;2023-07-13T04:03:29;3.10;;;2.73;;
19788;SDS011;10054;59.332;18.244;2023-07-13T04:06:00;4.73;;;3.10;;
19788;SDS011;10054;59.332;18.244;2023-07-13T04:08:30;5.03;;;2.97;;
19788;SDS011;10054;59.332;18.244;2023-07-13T04:11:01;3.40;;;2.90;;
19788;SDS011;10054;59.332;18.244;2023-07-13T04:13:31;3.33;;;2.90;;
19788;SDS011;10054;59.332;18.244;2023-07-13T04:16:00;4.73;;;3.10;;
19788;SDS011;10054;59.332;18.244;2023-07-13T04:18:29;5.93;;;3.03;;
19788;SDS011;10054;59.332;18.244;2023-07-13T04:20:58;2.47;;;2.27;;
19788;SDS011;10054;59.332;18.244;2023-07-13T04:23:27;3.83;;;2.93;;
19788;SDS011;10054;59.332;18.244;2023-07-13T04:25:56;3.47;;;2.57;;
19788;SDS011;10054;59.332;18.244;2023-07-13T04:28:25;5.93;;;2.90;;
19788;SDS011;10054;59.332;18.244;2023-07-13T04:30:57;4.43;;;2.80;;
19788;SDS011;10054;59.332;18.244;2023-07-13T04:33:26;6.17;;;2.60;;
19788;SDS011;10054;59.332;18.244;2023-07-13T04:35:57;2.67;;;2.47;;
19788;SDS011;10054;59.332;18.244;2023-07-13T04:38:27;4.67;;;2.40;;
19788;SDS011;10054;59.332;18.244;2023-07-13T04:40:58;3.00;;;2.63;;
19788;SDS011;10054;59.332;18.244;2023-07-13T04:43:29;5.90;;;2.75;;
19788;SDS011;10054;59.332;18.244;2023-07-13T04:46:06;5.17;;;2.65;;
19788;SDS011;10054;59.332;18.244;2023-07-13T04:48:37;3.10;;;2.50;;
19788;SDS011;10054;59.332;18.244;2023-07-13T04:51:06;3.70;;;2.90;;
19788;SDS011;10054;59.332;18.244;2023-07-13T04:53:35;6.28;;;3.10;;
19788;SDS011;10054;59.332;18.244;2023-07-13T04:56:04;4.22;;;2.80;;
19788;SDS011;10054;59.332;18.244;2023-07-13T04:58:34;4.87;;;2.50;;
19788;SDS011;10054;59.332;18.244;2023-07-13T05:01:03;5.58;;;2.87;;
19788;SDS011;10054;59.332;18.244;2023-07-13T05:03:33;4.30;;;2.50;;
19788;SDS011;10054;59.332;18.244;2023-07-13T05:06:08;3.77;;;2.58;;
19788;SDS011;10054;59.332;18.244;2023-07-13T05:08:33;4.47;;;2.50;;
19788;SDS011;10054;59.332;18.244;2023-07-13T05:11:02;2.75;;;2.40;;
19788;SDS011;10054;59.332;18.244;2023-07-13T05:13:33;2.40;;;2.20;;
19788;SDS011;10054;59.332;18.244;2023-07-13T05:16:03;5.78;;;2.70;;
19788;SDS011;10054;59.332;18.244;2023-07-13T05:18:34;4.10;;;2.72;;
19788;SDS011;10054;59.332;18.244;2023-07-13T05:21:05;3.20;;;2.13;;
19788;SDS011;10054;59.332;18.244;2023-07-13T05:23:36;3.42;;;2.40;;
19788;SDS011;10054;59.332;18.244;2023-07-13T05:26:05;3.65;;;2.08;;
19788;SDS011;10054;59.332;18.244;2023-07-13T05:28:35;5.72;;;2.30;;
19788;SDS011;10054;59.332;18.244;2023-07-13T05:31:06;5.40;;;2.00;;
19788;SDS011;10054;59.332;18.244;2023-07-13T05:33:35;4.58;;;2.30;;
19788;SDS011;10054;59.332;18.244;2023-07-13T05:36:04;4.15;;;2.40;;
19788;SDS011;10054;59.332;18.244;2023-07-13T05:38:33;3.60;;;2.12;;
19788;SDS011;10054;59.332;18.244;2023-07-13T05:41:03;3.37;;;2.12;;
19788;SDS011;10054;59.332;18.244;2023-07-13T05:43:33;3.08;;;1.90;;
19788;SDS011;10054;59.332;18.244;2023-07-13T05:46:02;3.83;;;1.98;;
19788;SDS011;10054;59.332;18.244;2023-07-13T05:48:31;3.10;;;2.12;;
19788;SDS011;10054;59.332;18.244;2023-07-13T05:51:00;3.20;;;1.98;;
19788;SDS011;10054;59.332;18.244;2023-07-13T05:53:29;4.03;;;2.17;;
19788;SDS011;10054;59.332;18.244;2023-07-13T05:55:58;5.05;;;2.02;;
19788;SDS011;10054;59.332;18.244;2023-07-13T05:58:27;4.15;;;2.17;;
19788;SDS011;10054;59.332;18.244;2023-07-13T06:01:00;6.12;;;1.98;;
19788;SDS011;10054;59.332;18.244;2023-07-13T06:03:30;2.98;;;2.17;;
19788;SDS011;10054;59.332;18.244;2023-07-13T06:05:59;5.12;;;2.08;;
19788;SDS011;10054;59.332;18.244;2023-07-13T06:08:28;3.27;;;1.75;;
19788;SDS011;10054;59.332;18.244;2023-07-13T06:11:04;5.97;;;1.90;;
19788;SDS011;10054;59.332;18.244;2023-07-13T06:13:47;7.62;;;2.00;;
19788;SDS011;10054;59.332;18.244;2023-07-13T06:16:16;6.53;;;1.95;;
19788;SDS011;10054;59.332;18.244;2023-07-13T06:18:47;3.35;;;1.80;;
19788;SDS011;10054;59.332;18.244;2023-07-13T06:21:17;3.70;;;1.80;;
19788;SDS011;10054;59.332;18.244;2023-07-13T06:23:48;2.75;;;1.65;;
19788;SDS011;10054;59.332;18.244;2023-07-13T06:26:19;2.80;;;1.70;;
19788;SDS011;10054;59.332;18.244;2023-07-13T06:28:48;5.22;;;2.02;;
19788;SDS011;10054;59.332;18.244;2023-07-13T06:31:17;3.67;;;1.87;;
19788;SDS011;10054;59.332;18.244;2023-07-13T06:33:46;3.55;;;1.70;;
19788;SDS011;10054;59.332;18.244;2023-07-13T06:36:15;4.10;;;1.45;;
19788;SDS011;10054;59.332;18.244;2023-07-13T06:38:44;3.80;;;1.75;;
19788;SDS011;10054;59.332;18.244;2023-07-13T06:41:13;2.75;;;1.50;;
19788;SDS011;10054;59.332;18.244;2023-07-13T06:43:42;1.57;;;1.27;;
19788;SDS011;10054;59.332;18.244;2023-07-13T06:46:10;3.25;;;1.55;;
19788;SDS011;10054;59.332;18.244;2023-07-13T06:48:39;3.50;;;1.52;;
19788;SDS011;10054;59.332;18.244;2023-07-13T06:51:10;2.70;;;1.85;;
19788;SDS011;10054;59.332;18.244;2023-07-13T06:53:39;3.65;;;1.57;;
19788;SDS011;10054;59.332;18.244;2023-07-13T06:56:09;5.60;;;1.50;;
19788;SDS011;10054;59.332;18.244;2023-07-13T06:58:39;3.20;;;1.52;;
19788;SDS011;10054;59.332;18.244;2023-07-13T07:01:08;2.62;;;1.57;;
19788;SDS011;10054;59.332;18.244;2023-07-13T07:03:37;3.20;;;1.70;;
19788;SDS011;10054;59.332;18.244;2023-07-13T07:06:13;4.05;;;1.50;;
19788;SDS011;10054;59.332;18.244;2023-07-13T07:08:43;4.17;;;1.47;;
19788;SDS011;10054;59.332;18.244;2023-07-13T07:11:16;5.37;;;1.75;;
19788;SDS011;10054;59.332;18.244;2023-07-13T07:13:46;3.83;;;1.77;;
19788;SDS011;10054;59.332;18.244;2023-07-13T07:16:15;5.33;;;1.67;;
19788;SDS011;10054;59.332;18.244;2023-07-13T07:18:44;2.17;;;1.60;;
19788;SDS011;10054;59.332;18.244;2023-07-13T07:21:14;7.08;;;2.27;;
19788;SDS011;10054;59.332;18.244;2023-07-13T07:23:43;4.85;;;1.60;;
19788;SDS011;10054;59.332;18.244;2023-07-13T07:26:12;2.50;;;1.50;;
19788;SDS011;10054;59.332;18.244;2023-07-13T07:28:41;6.67;;;1.75;;
19788;SDS011;10054;59.332;18.244;2023-07-13T07:31:10;2.75;;;1.50;;
19788;SDS011;10054;59.332;18.244;2023-07-13T07:33:39;3.58;;;1.70;;
19788;SDS011;10054;59.332;18.244;2023-07-13T07:36:08;2.72;;;1.55;;
19788;SDS011;10054;59.332;18.244;2023-07-13T07:38:38;4.12;;;1.80;;
19788;SDS011;10054;59.332;18.244;2023-07-13T07:41:07;3.98;;;1.57;;
19788;SDS011;10054;59.332;18.244;2023-07-13T07:43:37;4.50;;;1.70;;
19788;SDS011;10054;59.332;18.244;2023-07-13T07:46:06;5.90;;;1.50;;
19788;SDS011;10054;59.332;18.244;2023-07-13T07:48:35;3.98;;;1.55;;
19788;SDS011;10054;59.332;18.244;2023-07-13T07:51:04;3.02;;;1.52;;
19788;SDS011;10054;59.332;18.244;2023-07-13T07:53:32;8.65;;;2.22;;
19788;SDS011;10054;59.332;18.244;2023-07-13T07:56:01;3.45;;;1.67;;
19788;SDS011;10054;59.332;18.244;2023-07-13T07:58:30;3.37;;;1.42;;
19788;SDS011;10054;59.332;18.244;2023-07-13T08:01:03;4.72;;;1.70;;
19788;SDS011;10054;59.332;18.244;2023-07-13T08:03:32;2.30;;;1.62;;
19788;SDS011;10054;59.332;18.244;2023-07-13T08:06:02;4.50;;;1.70;;
19788;SDS011;10054;59.332;18.244;2023-07-13T08:08:31;4.90;;;1.60;;
19788;SDS011;10054;59.332;18.244;2023-07-13T08:11:02;5.70;;;2.12;;
19788;SDS011;10054;59.332;18.244;2023-07-13T08:13:31;3.17;;;1.70;;
19788;SDS011;10054;59.332;18.244;2023-07-13T08:16:00;5.20;;;1.95;;
19788;SDS011;10054;59.332;18.244;2023-07-13T08:18:32;3.83;;;1.70;;
19788;SDS011;10054;59.332;18.244;2023-07-13T08:21:05;3.85;;;1.60;;
19788;SDS011;10054;59.332;18.244;2023-07-13T08:23:35;3.50;;;1.72;;
19788;SDS011;10054;59.332;18.244;2023-07-13T08:26:04;6.05;;;1.72;;
19788;SDS011;10054;59.332;18.244;2023-07-13T08:28:33;3.25;;;1.45;;
19788;SDS011;10054;59.332;18.244;2023-07-13T08:31:07;2.77;;;1.55;;
19788;SDS011;10054;59.332;18.244;2023-07-13T08:33:35;5.30;;;1.70;;
19788;SDS011;10054;59.332;18.244;2023-07-13T08:36:05;3.30;;;1.40;;
19788;SDS011;10054;59.332;18.244;2023-07-13T08:38:34;4.28;;;1.50;;
19788;SDS011;10054;59.332;18.244;2023-07-13T08:41:09;3.85;;;1.40;;
19788;SDS011;10054;59.332;18.244;2023-07-13T08:43:41;2.47;;;1.32;;
19788;SDS011;10054;59.332;18.244;2023-07-13T08:46:17;2.05;;;1.45;;
19788;SDS011;10054;59.332;18.244;2023-07-13T08:48:57;3.60;;;1.50;;
19788;SDS011;10054;59.332;18.244;2023-07-13T08:54:00;4.85;;;1.40;;
19788;SDS011;10054;59.332;18.244;2023-07-13T08:56:32;1.15;;;1.00;;
19788;SDS011;10054;59.332;18.244;2023-07-13T08:59:03;2.00;;;1.50;;
19788;SDS011;10054;59.332;18.244;2023-07-13T09:04:23;4.20;;;1.62;;
19788;SDS011;10054;59.332;18.244;2023-07-13T09:09:50;4.75;;;1.45;;
19788;SDS011;10054;59.332;18.244;2023-07-13T09:15:41;2.00;;;1.32;;
19788;SDS011;10054;59.332;18.244;2023-07-13T09:18:01;1.87;;;1.32;;
19788;SDS011;10054;59.332;18.244;2023-07-13T09:20:54;2.37;;;1.40;;
19788;SDS011;10054;59.332;18.244;2023-07-13T09:23:15;1.55;;;1.30;;
19788;SDS011;10054;59.332;18.244;2023-07-13T09:25:47;3.00;;;1.20;;
19788;SDS011;10054;59.332;18.244;2023-07-13T09:28:20;2.50;;;1.45;;
19788;SDS011;10054;59.332;18.244;2023-07-13T09:31:14;3.08;;;1.55;;
19788;SDS011;10054;59.332;18.244;2023-07-13T09:33:40;2.98;;;1.40;;
19788;SDS011;10054;59.332;18.244;2023-07-13T09:36:52;2.50;;;1.50;;
19788;SDS011;10054;59.332;18.244;2023-07-13T09:38:48;3.02;;;1.40;;
19788;SDS011;10054;59.332;18.244;2023-07-13T09:44:10;2.22;;;1.30;;
19788;SDS011;10054;59.332;18.244;2023-07-13T09:46:52;2.95;;;1.30;;
19788;SDS011;10054;59.332;18.244;2023-07-13T09:49:25;2.65;;;1.27;;
19788;SDS011;10054;59.332;18.244;2023-07-13T09:52:15;4.03;;;1.50;;
19788;SDS011;10054;59.332;18.244;2023-07-13T09:54:36;3.58;;;1.50;;
19788;SDS011;10054;59.332;18.244;2023-07-13T09:57:12;4.37;;;1.60;;
19788;SDS011;10054;59.332;18.244;2023-07-13T09:59:47;2.70;;;1.30;;
19788;SDS011;10054;59.332;18.244;2023-07-13T10:02:30;2.35;;;1.27;;
19788;SDS011;10054;59.332;18.244;2023-07-13T10:05:02;2.40;;;1.27;;
19788;SDS011;10054;59.332;18.244;2023-07-13T10:07:42;3.95;;;1.30;;
19788;SDS011;10054;59.332;18.244;2023-07-13T10:10:15;3.75;;;1.40;;
19788;SDS011;10054;59.332;18.244;2023-07-13T10:12:48;2.85;;;1.30;;
19788;SDS011;10054;59.332;18.244;2023-07-13T10:15:23;2.10;;;1.20;;
19788;SDS011;10054;59.332;18.244;2023-07-13T10:17:49;3.47;;;1.27;;
19788;SDS011;10054;59.332;18.244;2023-07-13T10:20:21;2.67;;;1.30;;
19788;SDS011;10054;59.332;18.244;2023-07-13T10:23:04;2.98;;;1.30;;
19788;SDS011;10054;59.332;18.244;2023-07-13T10:25:35;3.37;;;1.20;;
19788;SDS011;10054;59.332;18.244;2023-07-13T10:28:16;4.33;;;1.25;;
19788;SDS011;10054;59.332;18.244;2023-07-13T10:30:59;3.58;;;1.40;;
19788;SDS011;10054;59.332;18.244;2023-07-13T10:33:30;2.75;;;1.30;;
19788;SDS011;10054;59.332;18.244;2023-07-13T10:36:12;2.70;;;1.30;;
19788;SDS011;10054;59.332;18.244;2023-07-13T10:38:43;3.00;;;1.30;;
19788;SDS011;10054;59.332;18.244;2023-07-13T10:41:17;2.42;;;1.30;;
19788;SDS011;10054;59.332;18.244;2023-07-13T10:43:54;3.62;;;1.22;;
19788;SDS011;10054;59.332;18.244;2023-07-13T10:46:20;1.95;;;1.20;;
19788;SDS011;10054;59.332;18.244;2023-07-13T10:48:54;2.25;;;1.35;;
19788;SDS011;10054;59.332;18.244;2023-07-13T10:51:24;3.27;;;1.30;;
19788;SDS011;10054;59.332;18.244;2023-07-13T10:56:44;1.77;;;1.12;;
19788;SDS011;10054;59.332;18.244;2023-07-13T11:01:55;2.77;;;1.35;;
19788;SDS011;10054;59.332;18.244;2023-07-13T11:04:26;3.65;;;1.40;;
19788;SDS011;10054;59.332;18.244;2023-07-13T11:06:58;2.17;;;1.20;;
19788;SDS011;10054;59.332;18.244;2023-07-13T11:12:00;2.22;;;1.20;;
19788;SDS011;10054;59.332;18.244;2023-07-13T11:17:35;2.58;;;1.30;;
19788;SDS011;10054;59.332;18.244;2023-07-13T11:20:10;1.98;;;1.07;;
19788;SDS011;10054;59.332;18.244;2023-07-13T11:22:44;3.83;;;1.45;;
19788;SDS011;10054;59.332;18.244;2023-07-13T11:28:06;1.87;;;1.50;;
19788;SDS011;10054;59.332;18.244;2023-07-13T11:30:59;2.95;;;1.30;;
19788;SDS011;10054;59.332;18.244;2023-07-13T11:33:18;2.55;;;1.35;;
19788;SDS011;10054;59.332;18.244;2023-07-13T11:35:51;3.35;;;1.47;;
19788;SDS011;10054;59.332;18.244;2023-07-13T11:38:39;1.50;;;1.20;;
19788;SDS011;10054;59.332;18.244;2023-07-13T11:41:17;2.42;;;1.22;;
19788;SDS011;10054;59.332;18.244;2023-07-13T11:43:51;2.62;;;1.42;;
19788;SDS011;10054;59.332;18.244;2023-07-13T11:46:26;4.53;;;1.22;;
19788;SDS011;10054;59.332;18.244;2023-07-13T11:48:55;2.33;;;1.20;;
19788;SDS011;10054;59.332;18.244;2023-07-13T11:51:35;5.78;;;1.47;;
19788;SDS011;10054;59.332;18.244;2023-07-13T11:54:06;1.95;;;1.20;;
19788;SDS011;10054;59.332;18.244;2023-07-13T11:56:36;3.27;;;1.30;;
19788;SDS011;10054;59.332;18.244;2023-07-13T11:59:06;1.72;;;1.30;;
19788;SDS011;10054;59.332;18.244;2023-07-13T12:01:38;3.85;;;1.50;;
19788;SDS011;10054;59.332;18.244;2023-07-13T12:04:26;4.05;;;1.60;;
19788;SDS011;10054;59.332;18.244;2023-07-13T12:06:55;2.22;;;1.30;;
19788;SDS011;10054;59.332;18.244;2023-07-13T12:09:26;4.35;;;1.50;;
19788;SDS011;10054;59.332;18.244;2023-07-13T12:11:57;3.60;;;1.50;;
19788;SDS011;10054;59.332;18.244;2023-07-13T12:14:27;2.80;;;1.40;;
19788;SDS011;10054;59.332;18.244;2023-07-13T12:16:56;2.20;;;1.37;;
19788;SDS011;10054;59.332;18.244;2023-07-13T12:19:26;4.78;;;1.45;;
19788;SDS011;10054;59.332;18.244;2023-07-13T12:21:56;3.70;;;1.30;;
19788;SDS011;10054;59.332;18.244;2023-07-13T12:24:26;1.90;;;1.30;;
19788;SDS011;10054;59.332;18.244;2023-07-13T12:27:00;2.00;;;1.30;;
19788;SDS011;10054;59.332;18.244;2023-07-13T12:29:33;2.87;;;1.52;;
19788;SDS011;10054;59.332;18.244;2023-07-13T12:32:02;3.70;;;1.35;;
19788;SDS011;10054;59.332;18.244;2023-07-13T12:34:49;2.50;;;1.50;;
19788;SDS011;10054;59.332;18.244;2023-07-13T12:37:08;3.00;;;1.45;;
19788;SDS011;10054;59.332;18.244;2023-07-13T12:39:38;2.47;;;1.50;;
19788;SDS011;10054;59.332;18.244;2023-07-13T12:42:22;2.15;;;1.40;;
19788;SDS011;10054;59.332;18.244;2023-07-13T12:47:39;3.27;;;1.55;;
19788;SDS011;10054;59.332;18.244;2023-07-13T12:50:14;4.25;;;1.65;;
19788;SDS011;10054;59.332;18.244;2023-07-13T12:52:42;3.55;;;1.40;;
19788;SDS011;10054;59.332;18.244;2023-07-13T12:55:12;5.17;;;1.45;;
19788;SDS011;10054;59.332;18.244;2023-07-13T12:57:50;2.00;;;1.27;;
19788;SDS011;10054;59.332;18.244;2023-07-13T13:00:27;2.27;;;1.27;;
19788;SDS011;10054;59.332;18.244;2023-07-13T13:03:05;3.83;;;1.25;;
19788;SDS011;10054;59.332;18.244;2023-07-13T13:05:34;4.00;;;1.40;;
19788;SDS011;10054;59.332;18.244;2023-07-13T13:08:04;3.60;;;1.40;;
19788;SDS011;10054;59.332;18.244;2023-07-13T13:10:34;3.12;;;1.50;;
19788;SDS011;10054;59.332;18.244;2023-07-13T13:13:02;1.82;;;1.17;;
19788;SDS011;10054;59.332;18.244;2023-07-13T13:15:31;1.35;;;1.20;;
19788;SDS011;10054;59.332;18.244;2023-07-13T13:18:00;3.05;;;1.10;;
19788;SDS011;10054;59.332;18.244;2023-07-13T13:20:29;3.52;;;1.15;;
19788;SDS011;10054;59.332;18.244;2023-07-13T13:22:58;1.10;;;1.00;;
19788;SDS011;10054;59.332;18.244;2023-07-13T13:25:27;3.70;;;1.20;;
19788;SDS011;10054;59.332;18.244;2023-07-13T13:27:56;2.37;;;1.00;;
19788;SDS011;10054;59.332;18.244;2023-07-13T13:30:25;1.35;;;1.20;;
19788;SDS011;10054;59.332;18.244;2023-07-13T13:32:54;2.00;;;1.20;;
19788;SDS011;10054;59.332;18.244;2023-07-13T13:35:22;0.95;;;0.90;;
19788;SDS011;10054;59.332;18.244;2023-07-13T13:37:53;2.17;;;1.10;;
19788;SDS011;10054;59.332;18.244;2023-07-13T13:40:22;4.72;;;1.40;;
19788;SDS011;10054;59.332;18.244;2023-07-13T13:42:51;4.22;;;1.62;;
19788;SDS011;10054;59.332;18.244;2023-07-13T13:45:21;2.47;;;1.07;;
19788;SDS011;10054;59.332;18.244;2023-07-13T13:47:51;2.90;;;1.30;;
19788;SDS011;10054;59.332;18.244;2023-07-13T13:50:21;1.42;;;1.10;;
19788;SDS011;10054;59.332;18.244;2023-07-13T13:52:50;3.60;;;1.20;;
19788;SDS011;10054;59.332;18.244;2023-07-13T13:55:20;3.85;;;1.35;;
19788;SDS011;10054;59.332;18.244;2023-07-13T13:57:50;5.65;;;1.45;;
19788;SDS011;10054;59.332;18.244;2023-07-13T14:00:20;1.47;;;1.30;;
19788;SDS011;10054;59.332;18.244;2023-07-13T14:02:49;3.77;;;1.40;;
19788;SDS011;10054;59.332;18.244;2023-07-13T14:05:20;4.03;;;1.30;;
19788;SDS011;10054;59.332;18.244;2023-07-13T14:07:52;2.27;;;1.40;;
19788;SDS011;10054;59.332;18.244;2023-07-13T14:10:23;2.70;;;1.20;;
19788;SDS011;10054;59.332;18.244;2023-07-13T14:12:54;1.95;;;1.20;;
19788;SDS011;10054;59.332;18.244;2023-07-13T14:15:29;2.87;;;1.40;;
19788;SDS011;10054;59.332;18.244;2023-07-13T14:17:57;1.92;;;1.20;;
19788;SDS011;10054;59.332;18.244;2023-07-13T14:20:26;2.15;;;1.30;;
19788;SDS011;10054;59.332;18.244;2023-07-13T14:22:56;4.65;;;1.22;;
19788;SDS011;10054;59.332;18.244;2023-07-13T14:25:25;1.67;;;1.20;;
19788;SDS011;10054;59.332;18.244;2023-07-13T14:27:55;3.87;;;1.15;;
19788;SDS011;10054;59.332;18.244;2023-07-13T14:30:29;2.98;;;1.05;;
19788;SDS011;10054;59.332;18.244;2023-07-13T14:32:58;2.02;;;1.20;;
19788;SDS011;10054;59.332;18.244;2023-07-13T14:35:27;1.70;;;1.15;;
19788;SDS011;10054;59.332;18.244;2023-07-13T14:37:56;1.45;;;1.20;;
19788;SDS011;10054;59.332;18.244;2023-07-13T14:40:28;3.30;;;1.40;;
19788;SDS011;10054;59.332;18.244;2023-07-13T14:42:58;3.08;;;1.10;;
19788;SDS011;10054;59.332;18.244;2023-07-13T14:45:27;1.40;;;1.20;;
19788;SDS011;10054;59.332;18.244;2023-07-13T14:47:58;3.60;;;1.20;;
19788;SDS011;10054;59.332;18.244;2023-07-13T14:50:30;3.30;;;1.30;;
19788;SDS011;10054;59.332;18.244;2023-07-13T14:53:02;1.32;;;1.20;;
19788;SDS011;10054;59.332;18.244;2023-07-13T14:55:30;2.33;;;1.20;;
19788;SDS011;10054;59.332;18.244;2023-07-13T14:57:59;3.30;;;1.35;;
19788;SDS011;10054;59.332;18.244;2023-07-13T15:00:28;3.17;;;1.52;;
19788;SDS011;10054;59.332;18.244;2023-07-13T15:02:58;2.60;;;1.60;;
19788;SDS011;10054;59.332;18.244;2023-07-13T15:05:29;3.62;;;1.50;;
19788;SDS011;10054;59.332;18.244;2023-07-13T15:07:59;2.65;;;1.42;;
19788;SDS011;10054;59.332;18.244;2023-07-13T15:10:31;1.75;;;1.37;;
19788;SDS011;10054;59.332;18.244;2023-07-13T15:13:16;3.67;;;1.60;;
19788;SDS011;10054;59.332;18.244;2023-07-13T15:15:47;3.75;;;1.40;;
19788;SDS011;10054;59.332;18.244;2023-07-13T15:18:22;1.75;;;1.40;;
19788;SDS011;10054;59.332;18.244;2023-07-13T15:20:50;3.52;;;1.50;;
19788;SDS011;10054;59.332;18.244;2023-07-13T15:23:20;3.33;;;1.70;;
19788;SDS011;10054;59.332;18.244;2023-07-13T15:25:49;2.15;;;1.50;;
19788;SDS011;10054;59.332;18.244;2023-07-13T15:28:18;2.65;;;1.55;;